Time;durP1;ratioP1;P1;durP2;ratioP2;P2;SDS_P1;SDS_P2;PMS_P1;PMS_P2;Temp;Humidity;BMP_temperature;BMP_pressure;BME280_temperature;BME280_humidity;BME280_pressure;Samples;Min_cycle;Max_cycle;Signal;HPM_P1;HPM_P2
2023/08/03 00:01:53;;;;;;;1999.90;999.90;;;;;;;16.38;100.00;93094.47;5024813;28;20198;-53
2023/08/03 00:04:18;;;;;;;1999.90;999.90;;;;;;;16.32;100.00;93088.19;5024549;28;20191;-54
2023/08/03 00:06:44;;;;;;;1999.90;999.90;;;;;;;16.30;100.00;93057.63;5024384;28;20191;-57
2023/08/03 00:09:10;;;;;;;1999.90;999.90;;;;;;;16.22;100.00;93062.09;5024703;28;20187;-56
2023/08/03 00:11:35;;;;;;;1999.90;999.90;;;;;;;16.25;100.00;93057.63;5024453;28;20183;-58
2023/08/03 00:14:01;;;;;;;1999.90;999.90;;;;;;;16.19;100.00;93073.38;5024952;28;20266;-57
2023/08/03 00:16:26;;;;;;;1999.90;999.90;;;;;;;16.20;100.00;93097.66;5024262;28;20241;-58
2023/08/03 00:18:51;;;;;;;1999.90;999.90;;;;;;;16.24;100.00;93089.91;5024859;28;20167;-56
2023/08/03 00:21:17;;;;;;;1999.90;999.90;;;;;;;16.23;100.00;93093.94;5024315;28;20198;-55
2023/08/03 00:23:42;;;;;;;1999.90;999.90;;;;;;;16.17;100.00;93103.38;5024376;28;20195;-58
2023/08/03 00:26:07;;;;;;;1999.90;999.90;;;;;;;16.19;100.00;93104.44;5024144;28;20217;-58
2023/08/03 00:28:33;;;;;;;1999.90;999.90;;;;;;;16.24;100.00;93076.13;5024102;28;20198;-58
2023/08/03 00:30:58;;;;;;;1999.90;999.90;;;;;;;16.21;100.00;93096.41;5024033;28;20215;-57
2023/08/03 00:33:23;;;;;;;1999.90;999.90;;;;;;;16.22;100.00;93102.69;5024508;28;20229;-58
2023/08/03 00:35:49;;;;;;;1999.90;999.90;;;;;;;16.18;100.00;93102.91;5023905;28;20195;-60
2023/08/03 00:38:14;;;;;;;1999.90;999.90;;;;;;;16.20;100.00;93072.88;5024245;28;20309;-59
2023/08/03 00:40:40;;;;;;;1999.90;999.90;;;;;;;16.21;100.00;93040.59;5024203;28;20195;-58
2023/08/03 00:43:05;;;;;;;1999.90;999.90;;;;;;;16.22;100.00;93102.69;5023945;28;20191;-59
2023/08/03 00:45:30;;;;;;;1999.90;999.90;;;;;;;16.25;100.00;93105.19;5023979;28;20203;-59
2023/08/03 00:47:56;;;;;;;1999.90;999.90;;;;;;;16.26;100.00;93117.72;5023902;28;20183;-60
2023/08/03 00:50:22;;;;;;;1999.90;999.90;;;;;;;16.29;100.00;93212.38;5023915;28;20246;-59
2023/08/03 00:52:47;;;;;;;1999.90;999.90;;;;;;;16.31;100.00;93245.69;5024398;28;20194;-59
2023/08/03 00:55:12;;;;;;;1999.90;999.90;;;;;;;16.36;100.00;93228.47;5024250;28;20270;-59
2023/08/03 00:57:38;;;;;;;1999.90;999.90;;;;;;;16.42;100.00;93170.66;5024238;28;20195;-61
2023/08/03 01:00:04;;;;;;;1999.90;999.90;;;;;;;16.42;100.00;93155.63;5023816;28;20198;-59
2023/08/03 01:02:29;;;;;;;1999.90;999.90;;;;;;;16.44;100.00;93149.63;5023821;28;20194;-59
2023/08/03 01:04:54;;;;;;;1999.90;999.90;;;;;;;16.49;100.00;93153.66;5024275;28;20194;-59
2023/08/03 01:07:21;;;;;;;1999.90;999.90;;;;;;;16.50;100.00;93133.09;5027771;28;20274;-58
2023/08/03 01:09:47;;;;;;;1999.90;999.90;;;;;;;16.49;100.00;93159.16;5028166;28;20191;-58
2023/08/03 01:12:13;;;;;;;1999.90;999.90;;;;;;;16.49;100.00;93170.19;5027908;28;20197;-57
2023/08/03 01:14:38;;;;;;;1999.90;999.90;;;;;;;16.48;100.00;93168.66;5028189;28;20179;-59
2023/08/03 01:17:04;;;;;;;1999.90;999.90;;;;;;;16.50;100.00;93168.94;5027686;28;20241;-57
2023/08/03 01:19:29;;;;;;;1999.90;999.90;;;;;;;16.51;100.00;93164.91;5027930;28;20285;-59
2023/08/03 01:21:56;;;;;;;1999.90;999.90;;;;;;;16.51;100.00;93156.66;5027888;28;20175;-59
2023/08/03 01:24:21;;;;;;;1999.90;999.90;;;;;;;16.55;100.00;93146.16;5027825;28;20318;-58
2023/08/03 01:26:47;;;;;;;1999.90;999.90;;;;;;;16.54;100.00;93155.66;5027787;28;20203;-59
2023/08/03 01:29:12;;;;;;;1999.90;999.90;;;;;;;16.51;100.00;93156.66;5027842;28;20258;-58
2023/08/03 01:31:40;;;;;;;1999.90;999.90;;;;;;;16.52;100.00;93158.16;5027557;28;20225;-60
2023/08/03 01:34:05;;;;;;;1999.90;999.90;;;;;;;16.52;100.00;93158.91;5027574;28;20198;-58
2023/08/03 01:36:31;;;;;;;1999.90;999.90;;;;;;;16.51;100.00;93162.16;5027438;28;20199;-59
2023/08/03 01:39:09;;;;;;;1999.90;999.90;;;;;;;16.55;100.00;93162.69;5027331;28;20202;-59
2023/08/03 01:41:35;;;;;;;1999.90;999.90;;;;;;;16.52;100.00;93163.66;5027537;28;20262;-59
2023/08/03 01:44:27;;;;;;;1999.90;999.90;;;;;;;16.50;100.00;93155.16;5027323;28;20198;-59
2023/08/03 01:46:54;;;;;;;1999.90;999.90;;;;;;;16.51;100.00;93153.91;5027473;28;20225;-58
2023/08/03 01:49:20;;;;;;;1999.90;999.90;;;;;;;16.51;100.00;93151.16;5027404;28;20195;-58
2023/08/03 01:51:46;;;;;;;1999.90;999.90;;;;;;;16.54;100.00;93152.91;5026963;28;20210;-59
2023/08/03 01:54:12;;;;;;;1999.90;999.90;;;;;;;16.54;100.00;93147.41;5027108;28;20195;-59
2023/08/03 01:56:37;;;;;;;1999.90;999.90;;;;;;;16.56;100.00;93147.66;5027129;28;20202;-59
2023/08/03 01:59:03;;;;;;;1999.90;999.90;;;;;;;16.55;100.00;93140.63;5026847;28;20222;-59
2023/08/03 02:01:28;;;;;;;1999.90;999.90;;;;;;;16.53;100.00;93146.63;5027059;28;20191;-59
2023/08/03 02:03:54;;;;;;;1999.90;999.90;;;;;;;16.52;100.00;93153.41;5026853;28;20187;-59
2023/08/03 02:06:20;;;;;;;1999.90;999.90;;;;;;;16.48;100.00;93160.41;5027307;28;20217;-59
2023/08/03 02:08:46;;;;;;;1999.90;999.90;;;;;;;16.44;100.00;93166.16;5027253;28;20211;-59
2023/08/03 02:11:11;;;;;;;1999.90;999.90;;;;;;;16.45;100.00;93167.66;5027213;28;20191;-60
2023/08/03 02:13:36;;;;;;;1999.90;999.90;;;;;;;16.46;100.00;93160.88;5027140;28;20167;-59
2023/08/03 02:16:03;;;;;;;1999.90;999.90;;;;;;;16.44;100.00;93144.84;5026783;28;20199;-60
2023/08/03 02:18:29;;;;;;;1999.90;999.90;;;;;;;16.46;100.00;93140.88;5026955;28;20201;-59
2023/08/03 02:20:55;;;;;;;1999.90;999.90;;;;;;;16.49;100.00;93132.34;5026623;28;20275;-60
2023/08/03 02:23:20;;;;;;;1999.90;999.90;;;;;;;16.52;100.00;93149.88;5026441;28;20190;-59
2023/08/03 02:25:46;;;;;;;1999.90;999.90;;;;;;;16.53;100.00;93154.16;5026590;28;20264;-59
2023/08/03 02:28:11;;;;;;;1999.90;999.90;;;;;;;16.47;100.00;93153.38;5026663;28;20214;-59
2023/08/03 02:30:39;;;;;;;1999.90;999.90;;;;;;;16.48;100.00;93141.09;5026507;28;20213;-60
2023/08/03 02:33:04;;;;;;;1999.90;999.90;;;;;;;16.48;100.00;93141.88;5026418;28;20191;-59
2023/08/03 02:35:29;;;;;;;1999.90;999.90;;;;;;;16.49;100.00;93137.13;5026738;28;20245;-59
2023/08/03 02:37:55;;;;;;;1999.90;999.90;;;;;;;16.48;100.00;93141.88;5026899;28;20261;-60
2023/08/03 02:40:20;;;;;;;1999.90;999.90;;;;;;;16.47;100.00;93145.13;5026752;28;20195;-59
2023/08/03 02:42:46;;;;;;;1999.90;999.90;;;;;;;16.47;100.00;93151.41;5026229;28;20199;-59
2023/08/03 02:45:11;;;;;;;1999.90;999.90;;;;;;;16.48;100.00;93157.63;5026281;28;20187;-60
2023/08/03 02:47:37;;;;;;;1999.90;999.90;;;;;;;16.49;100.00;93167.44;5026107;28;20242;-60
2023/08/03 02:50:03;;;;;;;1999.90;999.90;;;;;;;16.50;100.00;93177.19;5025995;28;20271;-60
2023/08/03 02:52:28;;;;;;;1999.90;999.90;;;;;;;16.51;100.00;93167.69;5026338;28;20199;-60
2023/08/03 02:54:54;;;;;;;1999.90;999.90;;;;;;;16.52;100.00;93171.94;5025992;28;20198;-61
2023/08/03 02:57:19;;;;;;;1999.90;999.90;;;;;;;16.46;100.00;93176.69;5025566;28;20199;-61
2023/08/03 02:59:44;;;;;;;1999.90;999.90;;;;;;;16.48;100.00;93179.69;5025686;28;20218;-60
2023/08/03 03:02:10;;;;;;;1999.90;999.90;;;;;;;16.44;100.00;93183.41;5025929;28;20194;-60
2023/08/03 03:04:35;;;;;;;1999.90;999.90;;;;;;;16.42;100.00;93187.94;5025735;28;20195;-61
2023/08/03 03:07:00;;;;;;;1999.90;999.90;;;;;;;16.43;100.00;93181.91;5026037;28;20207;-62
2023/08/03 03:09:26;;;;;;;1999.90;999.90;;;;;;;16.43;100.00;93179.16;5025863;28;20187;-62
2023/08/03 03:11:55;;;;;;;1999.90;999.90;;;;;;;16.40;100.00;93184.91;5026328;28;20187;-62
2023/08/03 03:14:21;;;;;;;1999.90;999.90;;;;;;;16.30;100.00;93187.09;5025957;28;20217;-62
2023/08/03 03:16:46;;;;;;;1999.90;999.90;;;;;;;16.25;100.00;93187.81;5025992;28;20266;-62
2023/08/03 03:19:11;;;;;;;1999.90;999.90;;;;;;;16.19;100.00;93178.78;5025397;28;20194;-63
2023/08/03 03:21:36;;;;;;;1999.90;999.90;;;;;;;16.12;100.00;93181.25;5026065;28;20199;-62
2023/08/03 03:24:02;;;;;;;1999.90;999.90;;;;;;;16.09;100.00;93174.72;5025821;28;20194;-62
2023/08/03 03:26:27;;;;;;;1999.90;999.90;;;;;;;16.02;100.00;93186.19;5025175;28;20219;-61
2023/08/03 03:28:52;;;;;;;1999.90;999.90;;;;;;;15.97;100.00;93186.94;5025172;28;20199;-61
2023/08/03 03:31:18;;;;;;;1999.90;999.90;;;;;;;15.94;100.00;93187.13;5025670;28;20278;-61
2023/08/03 03:33:43;;;;;;;1999.90;999.90;;;;;;;15.92;100.00;93187.63;5025177;28;20230;-61
2023/08/03 03:36:08;;;;;;;1999.90;999.90;;;;;;;15.84;100.00;93194.84;5025019;28;20257;-60
2023/08/03 03:38:34;;;;;;;1999.90;999.90;;;;;;;15.82;100.00;93202.84;5025255;28;20191;-60
2023/08/03 03:40:59;;;;;;;1999.90;999.90;;;;;;;15.83;100.00;93209.84;5025220;28;20201;-60
2023/08/03 03:43:24;;;;;;;1999.90;999.90;;;;;;;15.82;100.00;93202.09;5025122;28;20191;-61
2023/08/03 03:45:50;;;;;;;1999.90;999.90;;;;;;;15.84;100.00;93200.34;5025268;28;20230;-60
2023/08/03 03:48:15;;;;;;;1999.90;999.90;;;;;;;15.84;100.00;93196.81;5025471;28;20207;-60
2023/08/03 03:50:40;;;;;;;1999.90;999.90;;;;;;;15.83;100.00;93198.84;5025360;28;20195;-61
2023/08/03 03:53:06;;;;;;;1999.90;999.90;;;;;;;15.81;100.00;93195.81;5025396;28;20218;-60
2023/08/03 03:55:31;;;;;;;1999.90;999.90;;;;;;;15.80;100.00;93186.06;5024861;28;20195;-60
2023/08/03 03:57:58;;;;;;;1999.90;999.90;;;;;;;15.76;100.00;93193.78;5024812;28;20203;-60
2023/08/03 04:00:24;;;;;;;1999.90;999.90;;;;;;;15.76;100.00;93188.28;5024620;28;20193;-59
2023/08/03 04:02:50;;;;;;;1999.90;999.90;;;;;;;15.75;100.00;93189.53;5024707;28;20241;-59
2023/08/03 04:05:15;;;;;;;1999.90;999.90;;;;;;;15.76;100.00;93177.28;5024486;28;20214;-59
2023/08/03 04:07:41;;;;;;;1999.90;999.90;;;;;;;15.71;100.00;93169.75;5024679;28;20203;-60
2023/08/03 04:10:06;;;;;;;1999.90;999.90;;;;;;;15.66;100.00;93164.94;5025003;28;20230;-59
2023/08/03 04:12:32;;;;;;;1999.90;999.90;;;;;;;15.66;100.00;93164.94;5024790;28;20241;-59
2023/08/03 04:14:57;;;;;;;1999.90;999.90;;;;;;;15.65;100.00;93157.16;5024285;28;20202;-61
2023/08/03 04:17:22;;;;;;;1999.90;999.90;;;;;;;15.61;100.00;93160.16;5024188;28;20186;-60
2023/08/03 04:19:48;;;;;;;1999.90;999.90;;;;;;;15.61;100.00;93154.66;5024517;28;20273;-60
2023/08/03 04:22:13;;;;;;;1999.90;999.90;;;;;;;15.57;100.00;93148.63;5024751;28;20222;-60
2023/08/03 04:24:38;;;;;;;1999.90;999.90;;;;;;;15.69;100.00;93111.66;5024265;28;20206;-60
2023/08/03 04:27:04;;;;;;;1999.90;999.90;;;;;;;16.11;100.00;93070.31;5024883;28;20232;-58
2023/08/03 04:29:29;;;;;;;1999.90;999.90;;;;;;;16.42;100.00;93017.09;5024500;28;20195;-58
2023/08/03 04:31:55;;;;;;;1999.90;999.90;;;;;;;16.82;100.00;92989.06;5024279;28;20202;-57
2023/08/03 04:34:20;;;;;;;1999.90;999.90;;;;;;;17.13;100.00;92938.41;5024347;28;20198;-58
2023/08/03 04:36:47;;;;;;;1999.90;999.90;;;;;;;17.42;100.00;92933.09;5024052;28;20191;-60
2023/08/03 04:39:13;;;;;;;1999.90;999.90;;;;;;;17.69;100.00;93081.31;5023994;28;20222;-60
2023/08/03 04:41:38;;;;;;;1999.90;999.90;;;;;;;18.05;100.00;93328.09;5024341;28;20183;-59
2023/08/03 04:44:04;;;;;;;1999.90;999.90;;;;;;;18.17;100.00;93547.91;5024054;28;20241;-60
2023/08/03 04:46:29;;;;;;;1999.90;999.90;;;;;;;18.63;100.00;93791.69;5024177;28;20210;-59
2023/08/03 04:48:55;;;;;;;1999.90;999.90;;;;;;;18.79;100.00;93898.88;5023945;28;20250;-61
2023/08/03 04:51:20;;;;;;;1999.90;999.90;;;;;;;19.00;100.00;93969.47;5024092;28;20241;-60
2023/08/03 04:53:45;;;;;;;1999.90;999.90;;;;;;;19.06;100.00;94050.53;5023864;28;20248;-60
2023/08/03 04:56:11;;;;;;;1999.90;999.90;;;;;;;19.60;100.00;94115.97;5024201;28;20210;-60
2023/08/03 04:58:36;;;;;;;1999.90;999.90;;;;;;;19.69;100.00;94168.41;5023935;28;20198;-60
2023/08/03 05:01:01;;;;;;;1999.90;999.90;;;;;;;20.12;100.00;94164.47;5023674;28;20194;-60
2023/08/03 05:03:27;;;;;;;1999.90;999.90;;;;;;;20.16;100.00;94189.94;5024069;28;20187;-60
2023/08/03 05:05:52;;;;;;;1999.90;999.90;;;;;;;20.46;100.00;94199.47;5023775;28;20329;-60
2023/08/03 05:08:18;;;;;;;1999.90;999.90;;;;;;;20.71;100.00;94215.22;5023809;28;20183;-60
2023/08/03 05:10:43;;;;;;;1999.90;999.90;;;;;;;20.88;100.00;94246.63;5024325;28;20198;-61
2023/08/03 05:13:09;;;;;;;1999.90;999.90;;;;;;;20.87;100.00;94247.84;5024010;28;20187;-60
2023/08/03 05:15:34;;;;;;;1999.90;999.90;;;;;;;21.12;100.00;94235.88;5023954;28;20214;-61
2023/08/03 05:18:01;;;;;;;1999.90;999.90;;;;;;;21.40;100.00;94245.06;5023694;28;20183;-60
2023/08/03 05:20:27;;;;;;;1999.90;999.90;;;;;;;21.83;100.00;94265.91;5023651;28;20197;-60
2023/08/03 05:22:52;;;;;;;1999.90;999.90;;;;;;;22.42;100.00;94274.00;5023985;28;20187;-60
2023/08/03 05:25:18;;;;;;;1999.90;999.90;;;;;;;22.93;100.00;94272.69;5023918;28;20203;-60
2023/08/03 05:27:43;;;;;;;1999.90;999.90;;;;;;;23.27;100.00;94271.34;5023445;28;20218;-60
2023/08/03 05:30:09;;;;;;;1999.90;999.90;;;;;;;23.41;100.00;94281.44;5023486;28;20187;-60
2023/08/03 05:32:34;;;;;;;1999.90;999.90;;;;;;;23.73;100.00;94274.16;5023555;28;20194;-60
2023/08/03 05:35:00;;;;;;;1999.90;999.90;;;;;;;24.38;100.00;94284.16;5023649;28;20191;-59
2023/08/03 05:37:25;;;;;;;1999.90;999.90;;;;;;;24.20;100.00;94289.59;5023742;28;20198;-59
2023/08/03 05:39:51;;;;;;;1999.90;999.90;;;;;;;23.83;100.00;94292.09;5023793;28;20187;-60
2023/08/03 05:42:17;;;;;;;1999.90;999.90;;;;;;;24.65;100.00;94299.94;5023501;28;20198;-60
2023/08/03 05:44:43;;;;;;;1999.90;999.90;;;;;;;24.84;100.00;94289.59;5023407;28;20214;-54
2023/08/03 05:47:10;;;;;;;1999.90;999.90;;;;;;;24.63;100.00;94298.94;5023408;28;20207;-52
2023/08/03 05:49:36;;;;;;;1999.90;999.90;;;;;;;24.56;100.00;94308.63;5023815;28;20197;-54
2023/08/03 05:52:01;;;;;;;1999.90;999.90;;;;;;;24.92;100.00;94312.13;5025876;28;20234;-52
2023/08/03 05:54:27;;;;;;;1999.90;999.90;;;;;;;25.27;100.00;94306.41;5027173;28;20191;-53
2023/08/03 05:56:52;;;;;;;1999.90;999.90;;;;;;;25.23;100.00;94300.34;5027294;28;20246;-54
2023/08/03 05:59:24;;;;;;;1999.90;999.90;;;;;;;25.60;100.00;94300.47;5027050;28;20190;-55
2023/08/03 06:01:51;;;;;;;1999.90;999.90;;;;;;;25.50;100.00;94302.13;5026737;28;20195;-54
2023/08/03 06:04:17;;;;;;;1999.90;999.90;;;;;;;26.05;100.00;94312.63;5026841;28;20270;-56
2023/08/03 06:06:44;;;;;;;1999.90;999.90;;;;;;;25.62;100.00;94306.28;5026504;28;20253;-58
2023/08/03 06:09:14;;;;;;;1999.90;999.90;;;;;;;25.61;100.00;94315.22;5026707;28;20183;-49
2023/08/03 06:11:40;;;;;;;1999.90;999.90;;;;;;;25.97;100.00;94322.91;5026948;28;20183;-55
2023/08/03 06:14:11;;;;;;;1999.90;999.90;;;;;;;26.04;100.00;94321.53;5026717;28;20194;-53
2023/08/03 06:16:36;;;;;;;1999.90;999.90;;;;;;;26.17;100.00;94316.00;5026227;28;20253;-54
2023/08/03 06:19:02;;;;;;;1999.90;999.90;;;;;;;26.54;100.00;94336.31;5026185;28;20207;-56
2023/08/03 06:21:28;;;;;;;1999.90;999.90;;;;;;;26.13;100.00;94324.72;5026797;28;20188;-57
2023/08/03 06:23:57;;;;;;;1999.90;999.90;;;;;;;26.04;100.00;94327.88;5026410;28;20203;-57
2023/08/03 06:26:23;;;;;;;1999.90;999.90;;;;;;;25.92;100.00;94329.31;5026690;28;20203;-57
2023/08/03 06:28:53;;;;;;;1999.90;999.90;;;;;;;26.77;100.00;94334.69;5026480;28;20270;-58
2023/08/03 06:31:35;;;;;;;1999.90;999.90;;;;;;;26.36;100.00;94348.31;5026805;28;20195;-51
2023/08/03 06:34:02;;;;;;;1999.90;999.90;;;;;;;27.15;100.00;94330.47;5026320;28;20266;-56
2023/08/03 06:36:27;;;;;;;1999.90;999.90;;;;;;;26.37;100.00;94333.00;5026267;28;20191;-59
2023/08/03 06:38:54;;;;;;;1999.90;999.90;;;;;;;26.66;100.00;94332.06;5026323;28;20241;-60
2023/08/03 06:41:20;;;;;;;1999.90;999.90;;;;;;;27.03;100.00;94331.97;5025716;28;20199;-61
2023/08/03 06:43:46;;;;;;;1999.90;999.90;;;;;;;27.48;100.00;94346.72;5026321;28;20210;-60
2023/08/03 06:46:11;;;;;;;1999.90;999.90;;;;;;;28.30;91.73;94338.66;5025711;28;20219;-60
2023/08/03 06:48:37;;;;;;;1999.90;999.90;;;;;;;27.92;93.28;94337.44;5026221;28;20277;-60
2023/08/03 06:51:03;;;;;;;1999.90;999.90;;;;;;;27.98;92.51;94345.75;5026336;28;20202;-60
2023/08/03 06:53:30;;;;;;;1999.90;999.90;;;;;;;28.27;87.73;94350.22;5026330;28;20256;-60
2023/08/03 06:55:55;;;;;;;1999.90;999.90;;;;;;;28.62;88.54;94363.00;5026007;28;20195;-60
2023/08/03 06:58:21;;;;;;;1999.90;999.90;;;;;;;28.91;85.53;94351.28;5025629;28;20198;-60
2023/08/03 07:00:47;;;;;;;1999.90;999.90;;;;;;;29.43;78.58;94361.53;5025939;28;20245;-59
2023/08/03 07:03:13;;;;;;;1999.90;999.90;;;;;;;29.96;72.95;94379.53;5024443;28;20191;-59
2023/08/03 07:05:39;;;;;;;1999.90;999.90;;;;;;;30.81;70.84;94373.16;5025284;28;20211;-59
2023/08/03 07:08:05;;;;;;;1999.90;999.90;;;;;;;31.04;66.72;94376.81;5025751;28;20191;-60
2023/08/03 07:10:30;;;;;;;1999.90;999.90;;;;;;;30.69;64.18;94390.97;5025428;28;20245;-60
2023/08/03 07:12:56;;;;;;;1999.90;999.90;;;;;;;30.56;64.63;94403.13;5025421;28;20176;-57
2023/08/03 07:15:21;;;;;;;1999.90;999.90;;;;;;;32.02;61.08;94388.09;5025883;28;20203;-57
2023/08/03 07:17:47;;;;;;;1999.90;999.90;;;;;;;31.95;57.89;94386.06;5025490;28;20197;-58
2023/08/03 07:20:13;;;;;;;1999.90;999.90;;;;;;;32.18;57.25;94395.22;5025596;28;20253;-58
2023/08/03 07:22:39;;;;;;;1999.90;999.90;;;;;;;31.68;57.58;94395.47;5025534;28;20202;-58
2023/08/03 07:25:04;;;;;;;1999.90;999.90;;;;;;;31.53;57.94;94401.88;5024923;28;20197;-58
2023/08/03 07:27:31;;;;;;;1999.90;999.90;;;;;;;31.92;56.13;94387.19;5025327;28;20237;-58
2023/08/03 07:29:57;;;;;;;1999.90;999.90;;;;;;;31.03;56.45;94394.28;5025092;28;20195;-57
2023/08/03 07:32:22;;;;;;;1999.90;999.90;;;;;;;31.24;59.44;94386.41;5025322;28;20183;-59
2023/08/03 07:34:48;;;;;;;1999.90;999.90;;;;;;;28.79;65.71;94383.03;5025205;28;20263;-59
2023/08/03 07:37:13;;;;;;;1999.90;999.90;;;;;;;30.28;64.58;94382.72;5025250;28;20266;-58
2023/08/03 07:39:38;;;;;;;1999.90;999.90;;;;;;;30.31;60.03;94390.84;5025056;28;20198;-58
2023/08/03 07:42:04;;;;;;;1999.90;999.90;;;;;;;31.45;54.78;94391.88;5025400;28;20206;-58
2023/08/03 07:44:29;;;;;;;1999.90;999.90;;;;;;;31.54;54.52;94392.09;5025308;28;20171;-58
2023/08/03 07:46:55;;;;;;;1999.90;999.90;;;;;;;29.58;60.62;94398.22;5025116;28;20222;-58
2023/08/03 07:49:20;;;;;;;1999.90;999.90;;;;;;;27.93;69.29;94378.25;5025291;28;20209;-58
2023/08/03 07:51:47;;;;;;;1999.90;999.90;;;;;;;26.69;79.91;94403.13;5024742;28;20206;-58
2023/08/03 07:54:12;;;;;;;1999.90;999.90;;;;;;;26.22;86.71;94404.78;5024717;28;20237;-58
2023/08/03 07:56:38;;;;;;;1999.90;999.90;;;;;;;25.94;82.09;94396.72;5024839;28;20202;-59
2023/08/03 07:59:04;;;;;;;1999.90;999.90;;;;;;;25.47;89.38;94391.91;5024546;28;20187;-58
2023/08/03 08:01:31;;;;;;;1999.90;999.90;;;;;;;24.92;90.05;94379.19;5024799;28;20203;-58
2023/08/03 08:03:56;;;;;;;1999.90;999.90;;;;;;;26.08;84.65;94389.94;5024625;28;20249;-57
2023/08/03 08:06:21;;;;;;;1999.90;999.90;;;;;;;27.84;72.06;94395.56;5024664;28;20215;-62
2023/08/03 08:08:48;;;;;;;1999.90;999.90;;;;;;;28.64;66.18;94391.31;5024780;28;20191;-58
2023/08/03 08:11:15;;;;;;;1999.90;999.90;;;;;;;28.60;63.82;94396.53;5024905;28;20270;-58
2023/08/03 08:13:42;;;;;;;1999.90;999.90;;;;;;;29.41;61.34;94392.25;5024865;28;20214;-57
2023/08/03 08:16:09;;;;;;;1999.90;999.90;;;;;;;30.25;58.28;94412.03;5024339;28;20195;-58
2023/08/03 08:18:35;;;;;;;1999.90;999.90;;;;;;;30.83;57.62;94414.91;5024331;28;20190;-58
2023/08/03 08:21:05;;;;;;;1999.90;999.90;;;;;;;30.44;53.98;94406.84;5024332;28;20207;-58
2023/08/03 08:23:31;;;;;;;1999.90;999.90;;;;;;;30.31;55.80;94415.44;5024309;28;20258;-58
2023/08/03 08:25:57;;;;;;;1999.90;999.90;;;;;;;29.83;59.08;94427.53;5024272;28;20250;-58
2023/08/03 08:28:23;;;;;;;1999.90;999.90;;;;;;;30.02;56.59;94411.13;5024493;28;20226;-58
2023/08/03 08:30:49;;;;;;;1999.90;999.90;;;;;;;30.10;56.67;94423.97;5024230;28;20198;-59
2023/08/03 08:33:15;;;;;;;1999.90;999.90;;;;;;;30.72;55.43;94438.59;5024201;28;20202;-58
2023/08/03 08:35:42;;;;;;;1999.90;999.90;;;;;;;30.34;56.40;94425.63;5024136;28;20209;-58
2023/08/03 08:38:14;;;;;;;1999.90;999.90;;;;;;;29.95;57.63;94435.13;5024267;28;20254;-58
2023/08/03 08:40:40;;;;;;;1999.90;999.90;;;;;;;28.40;65.17;94442.91;5023978;28;20199;-60
2023/08/03 08:43:06;;;;;;;1999.90;999.90;;;;;;;27.47;72.01;94443.44;5024379;28;20314;-60
2023/08/03 08:45:33;;;;;;;1999.90;999.90;;;;;;;29.06;69.05;94435.09;5024439;28;20270;-59
2023/08/03 08:47:58;;;;;;;1999.90;999.90;;;;;;;29.05;63.52;94439.19;5024461;28;20270;-60
2023/08/03 08:50:24;;;;;;;1999.90;999.90;;;;;;;29.68;59.48;94449.97;5024189;28;20202;-59
2023/08/03 08:52:50;;;;;;;1999.90;999.90;;;;;;;31.26;57.43;94457.19;5023895;28;20203;-59
2023/08/03 08:55:36;;;;;;;1999.90;999.90;;;;;;;31.32;53.72;94454.97;5024355;28;20194;-59
2023/08/03 08:58:02;;;;;;;1999.90;999.90;;;;;;;29.91;58.82;94450.88;5023191;28;20272;-59
2023/08/03 09:00:27;;;;;;;1999.90;999.90;;;;;;;28.85;64.11;94459.59;5023708;28;20191;-59
2023/08/03 09:02:59;;;;;;;1999.90;999.90;;;;;;;29.91;63.24;94450.88;5024328;28;20218;-59
2023/08/03 09:05:25;;;;;;;1999.90;999.90;;;;;;;30.41;59.36;94441.81;5023499;28;20265;-59
2023/08/03 09:08:08;;;;;;;1999.90;999.90;;;;;;;30.50;58.27;94435.66;5024114;28;20298;-60
2023/08/03 09:10:54;;;;;;;1999.90;999.90;;;;;;;30.62;56.06;94450.91;5023912;28;20195;-59
2023/08/03 09:13:28;;;;;;;1999.90;999.90;;;;;;;30.47;56.54;94433.94;5023963;28;20195;-59
2023/08/03 09:15:53;;;;;;;1999.90;999.90;;;;;;;30.94;54.33;94432.28;5023815;28;20195;-60
2023/08/03 09:18:20;;;;;;;1999.90;999.90;;;;;;;29.89;55.79;94447.84;5023913;28;20231;-61
2023/08/03 09:20:46;;;;;;;1999.90;999.90;;;;;;;30.55;55.47;94451.63;5023626;28;20248;-62
2023/08/03 09:23:27;;;;;;;1999.90;999.90;;;;;;;29.38;59.98;94444.03;5023842;28;20206;-60
2023/08/03 09:25:52;;;;;;;1999.90;999.90;;;;;;;30.15;56.79;94458.94;5024291;28;20286;-59
2023/08/03 09:28:18;;;;;;;1999.90;999.90;;;;;;;30.43;55.51;94461.72;5027978;28;20191;-60
2023/08/03 09:30:48;;;;;;;1999.90;999.90;;;;;;;30.49;56.98;94463.06;5027888;28;20209;-60
2023/08/03 09:33:14;;;;;;;1999.90;999.90;;;;;;;30.61;56.91;94449.41;5027563;28;20233;-60
2023/08/03 09:35:40;;;;;;;1999.90;999.90;;;;;;;29.75;58.17;94460.53;5027403;28;20196;-60
2023/08/03 09:38:05;;;;;;;1999.90;999.90;;;;;;;30.29;57.62;94451.88;5027351;28;20248;-60
2023/08/03 09:40:46;;;;;;;1999.90;999.90;;;;;;;29.76;57.16;94457.16;5027661;28;20203;-60
2023/08/03 09:43:14;;;;;;;1999.90;999.90;;;;;;;30.73;57.49;94459.06;5027926;28;20199;-59
2023/08/03 09:45:39;;;;;;;1999.90;999.90;;;;;;;32.57;52.71;94456.78;5027351;28;20285;-60
2023/08/03 09:48:05;;;;;;;1999.90;999.90;;;;;;;31.75;51.82;94463.25;5026795;28;20202;-60
2023/08/03 09:50:34;;;;;;;1999.90;999.90;;;;;;;30.99;52.07;94465.19;5026976;28;20183;-60
2023/08/03 09:53:06;;;;;;;1999.90;999.90;;;;;;;32.15;51.38;94466.28;5027146;28;20199;-60
2023/08/03 09:55:39;;;;;;;1999.90;999.90;;;;;;;31.01;53.93;94464.63;5027277;28;20201;-60
2023/08/03 09:58:11;;;;;;;1999.90;999.90;;;;;;;31.26;53.11;94468.50;5027260;28;20203;-60
2023/08/03 10:00:38;;;;;;;1999.90;999.90;;;;;;;30.53;54.51;94465.56;5027165;28;20186;-60
2023/08/03 10:03:10;;;;;;;1999.90;999.90;;;;;;;29.61;57.06;94461.91;5026789;28;20206;-60
2023/08/03 10:05:39;;;;;;;1999.90;999.90;;;;;;;29.98;55.96;94473.47;5027158;28;20207;-60
2023/08/03 10:08:10;;;;;;;1999.90;999.90;;;;;;;29.78;57.40;94459.41;5026734;28;20222;-60
2023/08/03 10:10:41;;;;;;;1999.90;999.90;;;;;;;28.55;62.26;94462.06;5026733;28;20195;-60
2023/08/03 10:13:06;;;;;;;1999.90;999.90;;;;;;;28.08;62.16;94468.31;5027102;28;20460;-60
2023/08/03 10:15:32;;;;;;;1999.90;999.90;;;;;;;27.77;61.23;94460.72;5026985;28;20195;-60
2023/08/03 10:17:58;;;;;;;1999.90;999.90;;;;;;;27.52;63.54;94473.44;5026998;28;20191;-59
2023/08/03 10:20:25;;;;;;;1999.90;999.90;;;;;;;27.28;64.39;94476.38;5026583;28;20203;-60
2023/08/03 10:23:06;;;;;;;1999.90;999.90;;;;;;;26.59;69.12;94472.00;5026345;28;20195;-60
2023/08/03 10:25:31;;;;;;;1999.90;999.90;;;;;;;26.39;70.18;94459.28;5026254;28;20230;-60
2023/08/03 10:28:11;;;;;;;1999.90;999.90;;;;;;;25.92;71.38;94480.44;5026573;28;20203;-60
2023/08/03 10:31:10;;;;;;;1999.90;999.90;;;;;;;25.97;75.42;94474.06;5026717;28;20199;-59
2023/08/03 10:33:51;;;;;;;1999.90;999.90;;;;;;;25.43;77.48;94476.84;5026650;28;20238;-59
2023/08/03 10:36:33;;;;;;;1999.90;999.90;;;;;;;25.41;77.84;94478.66;5026193;28;20265;-59
2023/08/03 10:39:04;;;;;;;1999.90;999.90;;;;;;;25.61;77.39;94472.63;5025959;28;20202;-59
2023/08/03 10:41:37;;;;;;;1999.90;999.90;;;;;;;25.35;76.95;94487.09;5026102;28;20203;-54
2023/08/03 10:44:06;;;;;;;1999.90;999.90;;;;;;;25.35;80.17;94481.50;5026417;28;20195;-56
2023/08/03 10:46:39;;;;;;;1999.90;999.90;;;;;;;25.28;78.97;94481.28;5025778;28;20226;-57
2023/08/03 10:49:23;;;;;;;1999.90;999.90;;;;;;;25.38;79.69;94486.06;5026303;28;20198;-57